Time;durP1;ratioP1;P1;durP2;ratioP2;P2;SDS_P1;SDS_P2;PMS_P1;PMS_P2;Temp;Humidity;BMP_temperature;BMP_pressure;BME280_temperature;BME280_humidity;BME280_pressure;Samples;Min_cycle;Max_cycle;Signal;HPM_P1;HPM_P2
2023/07/24 00:00:47;;;;;;;15.65;10.57;;;;;;;;;;5095933;28;20084;-62
2023/07/24 00:03:13;;;;;;;13.70;10.90;;;;;;;;;;5102957;28;20020;-62
2023/07/24 00:05:38;;;;;;;17.95;11.70;;;;;;;;;;5105661;28;20281;-62
2023/07/24 00:08:03;;;;;;;14.90;11.65;;;;;;;;;;5092907;28;20449;-62
2023/07/24 00:10:29;;;;;;;17.13;10.20;;;;;;;;;;5094693;28;20027;-62
2023/07/24 00:12:54;;;;;;;20.55;11.30;;;;;;;;;;5104470;28;20055;-62
2023/07/24 00:15:19;;;;;;;18.40;12.30;;;;;;;;;;5100630;28;20390;-62
2023/07/24 00:17:44;;;;;;;12.55;10.35;;;;;;;;;;5096072;28;20270;-61
2023/07/24 00:20:10;;;;;;;16.17;9.15;;;;;;;;;;5090697;28;20498;-62
2023/07/24 00:22:35;;;;;;;18.08;12.15;;;;;;;;;;5100467;28;20063;-62
2023/07/24 00:25:00;;;;;;;13.77;9.93;;;;;;;;;;5108578;28;20051;-62
2023/07/24 00:27:26;;;;;;;19.45;12.07;;;;;;;;;;5101721;28;20111;-61
2023/07/24 00:29:51;;;;;;;18.95;11.77;;;;;;;;;;5094333;28;20479;-62
2023/07/24 00:32:16;;;;;;;15.33;10.67;;;;;;;;;;5094758;28;20420;-61
2023/07/24 00:34:41;;;;;;;12.00;10.03;;;;;;;;;;5098237;28;20283;-62
2023/07/24 00:37:07;;;;;;;23.33;13.60;;;;;;;;;;5094993;28;20277;-62
2023/07/24 00:39:32;;;;;;;18.05;11.45;;;;;;;;;;5096619;28;20280;-62
2023/07/24 00:41:57;;;;;;;16.67;11.33;;;;;;;;;;5093977;28;20016;-62
2023/07/24 00:44:22;;;;;;;15.48;11.25;;;;;;;;;;5095501;28;20281;-63
2023/07/24 00:46:48;;;;;;;17.87;12.60;;;;;;;;;;5090716;28;20032;-62
2023/07/24 00:49:13;;;;;;;16.63;11.45;;;;;;;;;;5096705;28;20281;-62
2023/07/24 00:51:39;;;;;;;22.23;12.55;;;;;;;;;;5106623;28;20027;-62
2023/07/24 00:54:05;;;;;;;20.73;10.27;;;;;;;;;;5111088;28;20409;-62
2023/07/24 00:56:31;;;;;;;13.73;10.88;;;;;;;;;;5111135;28;20024;-62
2023/07/24 00:58:56;;;;;;;20.30;12.10;;;;;;;;;;5109658;28;20111;-62
2023/07/24 01:01:22;;;;;;;15.90;11.00;;;;;;;;;;5109647;28;20024;-62
2023/07/24 01:03:48;;;;;;;13.00;9.40;;;;;;;;;;5109163;28;20016;-63
2023/07/24 01:06:13;;;;;;;17.38;10.25;;;;;;;;;;5111188;28;20138;-62
2023/07/24 01:08:39;;;;;;;19.10;9.93;;;;;;;;;;5107595;28;20099;-62
2023/07/24 01:11:30;;;;;;;17.60;10.93;;;;;;;;;;5101652;28;20273;-62
2023/07/24 01:13:57;;;;;;;15.00;9.40;;;;;;;;;;5082221;28;20035;-62
2023/07/24 01:16:26;;;;;;;13.82;10.77;;;;;;;;;;5114124;28;20024;-63
2023/07/24 01:18:51;;;;;;;13.48;10.25;;;;;;;;;;5100869;28;20066;-63
2023/07/24 01:21:20;;;;;;;14.85;9.30;;;;;;;;;;5112375;28;20450;-62
2023/07/24 01:24:15;;;;;;;14.10;10.35;;;;;;;;;;5094083;28;20137;-62
2023/07/24 01:26:40;;;;;;;17.35;10.10;;;;;;;;;;5044959;28;21054;-63
2023/07/24 01:29:05;;;;;;;13.88;10.35;;;;;;;;;;5065652;28;20074;-63
2023/07/24 01:31:30;;;;;;;13.90;10.10;;;;;;;;;;5053401;28;20845;-62
2023/07/24 01:33:56;;;;;;;16.93;11.37;;;;;;;;;;5066989;28;20273;-63
2023/07/24 01:36:21;;;;;;;19.58;11.52;;;;;;;;;;5063309;28;20281;-63
2023/07/24 01:38:47;;;;;;;15.35;10.57;;;;;;;;;;5092723;28;20459;-63
2023/07/24 01:41:12;;;;;;;26.70;14.30;;;;;;;;;;5113056;28;20015;-62
2023/07/24 01:43:37;;;;;;;19.83;13.50;;;;;;;;;;5112062;28;20093;-62
2023/07/24 01:46:03;;;;;;;19.27;12.43;;;;;;;;;;5113417;28;20346;-62
2023/07/24 01:48:28;;;;;;;18.48;10.95;;;;;;;;;;5112074;28;20288;-61
2023/07/24 01:50:53;;;;;;;22.60;11.90;;;;;;;;;;5113682;28;20023;-61
2023/07/24 01:53:18;;;;;;;17.52;12.77;;;;;;;;;;5111651;28;20617;-63
2023/07/24 01:55:44;;;;;;;17.03;10.67;;;;;;;;;;5101510;28;20024;-61
2023/07/24 01:58:09;;;;;;;18.50;10.93;;;;;;;;;;5111311;28;20269;-61
2023/07/24 02:00:34;;;;;;;14.98;11.45;;;;;;;;;;5113070;28;20828;-62
2023/07/24 02:02:59;;;;;;;35.72;13.27;;;;;;;;;;5111997;28;20031;-61
2023/07/24 02:05:25;;;;;;;27.55;13.88;;;;;;;;;;5113456;28;20051;-61
2023/07/24 02:07:50;;;;;;;19.73;12.63;;;;;;;;;;5112169;28;20027;-61
2023/07/24 02:10:15;;;;;;;14.33;9.80;;;;;;;;;;5099169;28;20035;-62
2023/07/24 02:12:41;;;;;;;16.07;11.23;;;;;;;;;;5094171;28;20290;-62
2023/07/24 02:15:06;;;;;;;20.48;14.90;;;;;;;;;;5105734;28;20322;-62
2023/07/24 02:17:31;;;;;;;17.50;11.65;;;;;;;;;;5113571;28;20108;-62
2023/07/24 02:19:57;;;;;;;13.45;10.27;;;;;;;;;;5112912;28;20023;-62
2023/07/24 02:22:22;;;;;;;19.03;11.73;;;;;;;;;;5093626;28;20024;-62
2023/07/24 02:24:47;;;;;;;19.60;10.75;;;;;;;;;;5093235;28;20254;-62
2023/07/24 02:27:14;;;;;;;15.83;10.17;;;;;;;;;;5092952;28;20524;-63
2023/07/24 02:29:39;;;;;;;17.58;11.65;;;;;;;;;;5110614;28;20327;-63
2023/07/24 02:32:04;;;;;;;22.90;11.88;;;;;;;;;;5113468;28;20470;-63
2023/07/24 02:34:30;;;;;;;27.38;14.52;;;;;;;;;;5108788;28;20016;-64
2023/07/24 02:36:55;;;;;;;26.33;10.77;;;;;;;;;;5062999;28;20020;-63
2023/07/24 02:39:21;;;;;;;28.08;12.60;;;;;;;;;;5100619;28;20361;-63
2023/07/24 02:41:47;;;;;;;14.38;10.02;;;;;;;;;;5093664;28;20023;-64
2023/07/24 02:44:12;;;;;;;15.38;9.95;;;;;;;;;;5093109;28;20026;-63
2023/07/24 02:46:38;;;;;;;13.93;10.47;;;;;;;;;;5106139;28;20107;-63
2023/07/24 02:49:03;;;;;;;15.93;10.90;;;;;;;;;;5093076;28;20282;-63
2023/07/24 02:51:28;;;;;;;18.30;11.10;;;;;;;;;;5093328;28;20278;-63
2023/07/24 02:53:54;;;;;;;15.85;10.88;;;;;;;;;;5092656;28;20023;-63
2023/07/24 02:56:20;;;;;;;14.90;10.70;;;;;;;;;;5099472;28;20537;-64
2023/07/24 02:58:45;;;;;;;17.23;11.60;;;;;;;;;;5111780;28;20027;-63
2023/07/24 03:01:12;;;;;;;15.43;10.00;;;;;;;;;;5112220;28;20020;-63
2023/07/24 03:03:37;;;;;;;25.23;18.38;;;;;;;;;;5098596;28;20034;-63
2023/07/24 03:06:02;;;;;;;14.48;11.57;;;;;;;;;;5105466;28;20036;-63
2023/07/24 03:08:28;;;;;;;18.83;11.00;;;;;;;;;;5104303;28;20480;-63
2023/07/24 03:10:53;;;;;;;17.60;6.40;;;;;;;;;;5112557;28;20018;-63
2023/07/24 03:13:18;;;;;;;12.83;7.87;;;;;;;;;;5111247;28;20366;-63
2023/07/24 03:15:51;;;;;;;11.68;7.63;;;;;;;;;;5111675;28;20825;-63
2023/07/24 03:18:16;;;;;;;13.25;9.15;;;;;;;;;;5111994;28;20077;-62
2023/07/24 03:20:41;;;;;;;6.97;4.43;;;;;;;;;;5112271;28;20416;-63
2023/07/24 03:23:06;;;;;;;9.50;5.07;;;;;;;;;;5098636;28;20261;-62
2023/07/24 03:25:35;;;;;;;9.80;4.60;;;;;;;;;;5101516;28;20300;-63
2023/07/24 03:28:00;;;;;;;5.72;3.20;;;;;;;;;;5088779;28;20107;-63
2023/07/24 03:30:25;;;;;;;5.50;3.30;;;;;;;;;;5091841;28;20127;-62
2023/07/24 03:32:51;;;;;;;6.50;3.55;;;;;;;;;;5096440;28;20027;-62
2023/07/24 03:35:16;;;;;;;5.93;3.73;;;;;;;;;;5106431;28;20090;-63
2023/07/24 03:37:41;;;;;;;6.53;3.67;;;;;;;;;;5094505;28;20270;-63
2023/07/24 03:40:07;;;;;;;4.93;2.97;;;;;;;;;;5098990;28;20266;-63
2023/07/24 03:42:32;;;;;;;6.15;3.75;;;;;;;;;;5099431;28;20308;-63
2023/07/24 03:44:57;;;;;;;8.90;4.40;;;;;;;;;;5098877;28;20032;-63
2023/07/24 03:47:23;;;;;;;7.07;4.32;;;;;;;;;;5095043;28;20454;-63
2023/07/24 03:49:48;;;;;;;6.90;4.38;;;;;;;;;;5098652;28;20020;-63
2023/07/24 03:52:13;;;;;;;5.45;3.58;;;;;;;;;;5099524;28;20103;-63
2023/07/24 03:54:39;;;;;;;5.30;3.20;;;;;;;;;;5098773;28;20107;-63
2023/07/24 03:57:04;;;;;;;7.28;4.05;;;;;;;;;;5094360;28;20274;-63
2023/07/24 03:59:29;;;;;;;4.97;3.75;;;;;;;;;;5099040;28;20387;-63
2023/07/24 04:01:55;;;;;;;6.30;4.07;;;;;;;;;;5100099;28;20107;-63
2023/07/24 04:04:20;;;;;;;5.33;3.93;;;;;;;;;;5091934;28;20024;-63
2023/07/24 04:06:45;;;;;;;5.73;3.80;;;;;;;;;;5096156;28;20293;-63
2023/07/24 04:09:14;;;;;;;5.95;3.92;;;;;;;;;;5105612;28;20625;-63
2023/07/24 04:11:39;;;;;;;7.85;4.30;;;;;;;;;;5098254;28;20020;-63
2023/07/24 04:14:04;;;;;;;7.00;4.07;;;;;;;;;;5099708;28;20024;-63
2023/07/24 04:16:30;;;;;;;7.17;4.30;;;;;;;;;;5109062;28;20378;-63
2023/07/24 04:18:55;;;;;;;6.07;4.10;;;;;;;;;;5101154;28;20280;-61
2023/07/24 04:21:20;;;;;;;5.13;3.77;;;;;;;;;;5098971;28;20268;-64
2023/07/24 04:23:45;;;;;;;6.60;3.95;;;;;;;;;;5081700;28;20317;-62
2023/07/24 04:26:10;;;;;;;5.70;3.90;;;;;;;;;;5100560;28;20036;-63
2023/07/24 04:28:36;;;;;;;7.40;4.03;;;;;;;;;;5087211;28;20745;-62
2023/07/24 04:31:01;;;;;;;5.93;3.70;;;;;;;;;;5102012;28;20594;-63
2023/07/24 04:33:27;;;;;;;8.95;3.75;;;;;;;;;;5109931;28;20758;-62
2023/07/24 04:35:52;;;;;;;6.40;4.53;;;;;;;;;;5103703;28;20020;-62
2023/07/24 04:38:17;;;;;;;5.63;3.83;;;;;;;;;;5097616;28;20051;-62
2023/07/24 04:40:46;;;;;;;5.55;3.67;;;;;;;;;;5103337;28;20108;-62
2023/07/24 04:43:11;;;;;;;7.30;4.10;;;;;;;;;;5100928;28;20031;-62
2023/07/24 04:45:36;;;;;;;5.33;3.77;;;;;;;;;;5099494;28;20032;-62
2023/07/24 04:48:01;;;;;;;6.53;4.13;;;;;;;;;;5100737;28;20270;-62
2023/07/24 04:50:27;;;;;;;7.35;4.32;;;;;;;;;;5105257;28;20023;-62
2023/07/24 04:52:52;;;;;;;5.60;4.10;;;;;;;;;;5107751;28;20020;-62
2023/07/24 04:55:17;;;;;;;6.90;3.97;;;;;;;;;;5109254;28;20379;-62
2023/07/24 04:57:42;;;;;;;7.93;3.97;;;;;;;;;;5111878;28;20273;-62
2023/07/24 05:00:08;;;;;;;6.70;3.73;;;;;;;;;;5101857;28;20300;-62
2023/07/24 05:02:33;;;;;;;6.57;3.85;;;;;;;;;;5098851;28;20285;-63
2023/07/24 05:04:58;;;;;;;5.80;3.70;;;;;;;;;;5047969;28;20027;-62
2023/07/24 05:07:23;;;;;;;6.83;3.93;;;;;;;;;;5054023;28;20134;-62
2023/07/24 05:09:49;;;;;;;6.83;3.97;;;;;;;;;;5111733;28;20269;-63
2023/07/24 05:12:14;;;;;;;5.40;3.83;;;;;;;;;;5113748;28;20269;-62
2023/07/24 05:14:39;;;;;;;5.97;3.43;;;;;;;;;;5114313;28;20090;-62
2023/07/24 05:17:04;;;;;;;6.05;3.88;;;;;;;;;;5114424;28;20348;-61
2023/07/24 05:19:30;;;;;;;6.75;3.60;;;;;;;;;;5103513;28;20028;-62
2023/07/24 05:21:55;;;;;;;5.93;3.60;;;;;;;;;;5104426;28;20024;-62
2023/07/24 05:24:20;;;;;;;5.93;3.30;;;;;;;;;;5113605;28;20331;-63
2023/07/24 05:26:45;;;;;;;6.57;4.10;;;;;;;;;;5103136;28;20769;-63
2023/07/24 05:29:11;;;;;;;5.18;3.22;;;;;;;;;;5113120;28;20617;-63
2023/07/24 05:31:36;;;;;;;7.63;3.40;;;;;;;;;;5104603;28;20035;-63
2023/07/24 05:34:01;;;;;;;5.90;3.25;;;;;;;;;;5103902;28;20469;-62
2023/07/24 05:36:26;;;;;;;5.35;3.15;;;;;;;;;;5099032;28;20068;-62
2023/07/24 05:38:52;;;;;;;6.60;3.30;;;;;;;;;;5111419;28;20030;-62
2023/07/24 05:41:18;;;;;;;3.85;2.35;;;;;;;;;;5113604;28;20631;-61
2023/07/24 05:43:43;;;;;;;3.15;1.65;;;;;;;;;;5102833;28;20038;-60
2023/07/24 05:46:08;;;;;;;4.57;2.77;;;;;;;;;;5099663;28;20110;-61
2023/07/24 05:48:33;;;;;;;3.57;2.37;;;;;;;;;;5109064;28;20358;-61
2023/07/24 05:50:59;;;;;;;5.28;2.45;;;;;;;;;;5106229;28;20285;-61
2023/07/24 05:53:24;;;;;;;3.93;2.53;;;;;;;;;;5107824;28;20030;-62
2023/07/24 05:55:56;;;;;;;3.90;1.98;;;;;;;;;;5106546;28;20605;-63
2023/07/24 05:58:21;;;;;;;4.85;2.25;;;;;;;;;;5108144;28;20231;-64
2023/07/24 06:00:46;;;;;;;4.33;2.63;;;;;;;;;;5108179;28;20023;-63
2023/07/24 06:03:12;;;;;;;4.47;2.70;;;;;;;;;;5108032;28;20811;-64
2023/07/24 06:05:37;;;;;;;3.95;2.50;;;;;;;;;;5106876;28;20289;-63
2023/07/24 06:08:02;;;;;;;4.43;2.87;;;;;;;;;;5109091;28;20382;-63
2023/07/24 06:10:27;;;;;;;4.30;2.60;;;;;;;;;;5109818;28;20281;-63
2023/07/24 06:12:53;;;;;;;4.83;3.23;;;;;;;;;;5104454;28;20024;-64
2023/07/24 06:15:18;;;;;;;5.25;3.25;;;;;;;;;;5092834;28;21682;-64
2023/07/24 06:17:43;;;;;;;4.93;3.08;;;;;;;;;;5092554;28;20081;-63
2023/07/24 06:20:08;;;;;;;4.97;2.83;;;;;;;;;;5102566;28;20168;-64
2023/07/24 06:22:34;;;;;;;4.40;2.47;;;;;;;;;;5113624;28;20301;-63
2023/07/24 06:24:59;;;;;;;3.73;2.80;;;;;;;;;;5099703;28;20016;-63
2023/07/24 06:27:24;;;;;;;3.78;2.50;;;;;;;;;;5096454;28;20372;-64
2023/07/24 06:29:49;;;;;;;3.15;2.03;;;;;;;;;;5096459;28;20028;-64
2023/07/24 06:32:15;;;;;;;3.53;2.20;;;;;;;;;;5093899;28;20028;-64
2023/07/24 06:34:40;;;;;;;4.00;2.23;;;;;;;;;;5097792;28;20331;-64
2023/07/24 06:37:05;;;;;;;2.97;1.77;;;;;;;;;;5103126;28;20683;-64
2023/07/24 06:39:30;;;;;;;3.63;1.98;;;;;;;;;;5096172;28;20276;-64
2023/07/24 06:41:56;;;;;;;3.22;1.90;;;;;;;;;;5094697;28;20020;-65
2023/07/24 06:44:21;;;;;;;3.50;2.13;;;;;;;;;;5103453;28;20062;-64
2023/07/24 06:46:47;;;;;;;3.30;2.40;;;;;;;;;;5107757;28;20497;-63
2023/07/24 06:49:12;;;;;;;3.58;2.15;;;;;;;;;;5107807;28;20030;-63
2023/07/24 06:51:38;;;;;;;3.50;2.20;;;;;;;;;;5104704;28;20030;-63
2023/07/24 06:54:04;;;;;;;4.57;3.25;;;;;;;;;;5100122;28;20051;-63
2023/07/24 06:56:29;;;;;;;5.63;3.47;;;;;;;;;;5096047;28;20055;-63
2023/07/24 06:58:54;;;;;;;4.30;3.55;;;;;;;;;;5100084;28;20034;-63
2023/07/24 07:01:19;;;;;;;4.18;3.00;;;;;;;;;;5096259;28;20062;-63
2023/07/24 07:03:45;;;;;;;5.20;2.90;;;;;;;;;;5099058;28;20023;-63
2023/07/24 07:06:11;;;;;;;4.93;2.77;;;;;;;;;;5104101;28;20790;-62
2023/07/24 07:08:37;;;;;;;4.30;2.88;;;;;;;;;;5102615;28;20337;-62
2023/07/24 07:11:02;;;;;;;3.35;2.00;;;;;;;;;;5111726;28;20106;-63
2023/07/24 07:13:27;;;;;;;3.58;1.92;;;;;;;;;;5111422;28;20394;-63
2023/07/24 07:15:52;;;;;;;3.15;1.85;;;;;;;;;;5098000;28;20031;-63
2023/07/24 07:18:18;;;;;;;3.30;1.60;;;;;;;;;;5111069;28;20015;-63
2023/07/24 07:20:47;;;;;;;3.20;1.42;;;;;;;;;;5109662;28;20734;-62
2023/07/24 07:23:12;;;;;;;3.65;1.65;;;;;;;;;;5110520;28;20503;-63
2023/07/24 07:25:37;;;;;;;3.08;1.40;;;;;;;;;;5110716;28;20102;-62
2023/07/24 07:28:02;;;;;;;3.08;1.58;;;;;;;;;;5109533;28;20031;-62
2023/07/24 07:30:28;;;;;;;3.92;1.90;;;;;;;;;;5108216;28;20023;-62
2023/07/24 07:32:53;;;;;;;2.43;1.30;;;;;;;;;;5110578;28;20032;-62
2023/07/24 07:35:18;;;;;;;1.60;0.93;;;;;;;;;;5111087;28;20288;-62
2023/07/24 07:37:43;;;;;;;2.57;1.17;;;;;;;;;;5111566;28;20273;-62
2023/07/24 07:40:09;;;;;;;2.50;1.10;;;;;;;;;;5110512;28;20273;-63
2023/07/24 07:42:34;;;;;;;1.85;1.10;;;;;;;;;;5105257;28;20036;-63
2023/07/24 07:44:59;;;;;;;2.47;1.13;;;;;;;;;;5105398;28;20024;-62
2023/07/24 07:47:25;;;;;;;2.63;0.75;;;;;;;;;;5103225;28;20035;-62
2023/07/24 07:49:50;;;;;;;2.28;0.90;;;;;;;;;;5109685;28;20100;-63
2023/07/24 07:52:17;;;;;;;1.53;0.80;;;;;;;;;;5111247;28;20110;-63
2023/07/24 07:54:45;;;;;;;2.15;0.95;;;;;;;;;;5104822;28;20278;-62
2023/07/24 07:57:10;;;;;;;2.10;0.95;;;;;;;;;;5109163;28;20462;-61
2023/07/24 07:59:36;;;;;;;1.47;0.63;;;;;;;;;;5108795;28;20031;-61
2023/07/24 08:02:01;;;;;;;2.67;1.03;;;;;;;;;;5109138;28;20752;-62
2023/07/24 08:04:26;;;;;;;1.37;0.73;;;;;;;;;;5110519;28;20311;-62
2023/07/24 08:06:51;;;;;;;2.65;1.08;;;;;;;;;;5110603;28;20293;-61
2023/07/24 08:09:17;;;;;;;2.10;1.10;;;;;;;;;;5108337;28;20423;-61
2023/07/24 08:11:42;;;;;;;2.58;1.55;;;;;;;;;;5102190;28;20275;-61
2023/07/24 08:14:08;;;;;;;2.58;1.38;;;;;;;;;;5109538;28;20098;-62
2023/07/24 08:16:33;;;;;;;2.78;1.48;;;;;;;;;;5114472;28;20088;-63
2023/07/24 08:18:58;;;;;;;2.00;1.20;;;;;;;;;;5103958;28;20020;-62
2023/07/24 08:21:23;;;;;;;1.50;0.70;;;;;;;;;;5111387;28;20768;-63
2023/07/24 08:23:48;;;;;;;1.73;0.90;;;;;;;;;;5104379;28;20846;-63
2023/07/24 08:26:14;;;;;;;2.23;1.20;;;;;;;;;;5113881;28;20723;-62
2023/07/24 08:28:42;;;;;;;1.90;1.03;;;;;;;;;;5105128;28;20320;-63
2023/07/24 08:31:07;;;;;;;3.75;2.28;;;;;;;;;;5095466;28;20270;-62
2023/07/24 08:33:32;;;;;;;2.65;1.63;;;;;;;;;;5094528;28;20032;-62
2023/07/24 08:36:05;;;;;;;2.63;1.13;;;;;;;;;;5095456;28;21335;-62
2023/07/24 08:38:30;;;;;;;2.13;1.05;;;;;;;;;;5103903;28;20270;-63
2023/07/24 08:41:02;;;;;;;3.65;1.70;;;;;;;;;;5105449;28;20020;-63
2023/07/24 08:43:28;;;;;;;2.20;1.20;;;;;;;;;;5100275;28;20486;-62
2023/07/24 08:45:54;;;;;;;2.22;1.20;;;;;;;;;;5104957;28;20385;-63
2023/07/24 08:48:20;;;;;;;2.40;1.25;;;;;;;;;;5104912;28;20024;-63
2023/07/24 08:50:47;;;;;;;3.53;1.70;;;;;;;;;;5109715;28;20019;-62
2023/07/24 08:53:13;;;;;;;3.58;1.50;;;;;;;;;;5107529;28;20016;-63
2023/07/24 08:55:39;;;;;;;3.08;1.77;;;;;;;;;;5102423;28;20028;-62
2023/07/24 08:58:06;;;;;;;3.60;1.65;;;;;;;;;;5102647;28;20123;-63
2023/07/24 09:00:32;;;;;;;2.85;1.40;;;;;;;;;;5105130;28;20015;-63
2023/07/24 09:02:57;;;;;;;2.42;1.33;;;;;;;;;;5107254;28;20493;-63
2023/07/24 09:05:22;;;;;;;3.10;1.60;;;;;;;;;;5099880;28;20024;-63
2023/07/24 09:07:47;;;;;;;3.33;1.37;;;;;;;;;;5101718;28;20281;-63
2023/07/24 09:10:13;;;;;;;2.28;1.23;;;;;;;;;;5095483;28;20270;-62
2023/07/24 09:12:41;;;;;;;3.53;1.40;;;;;;;;;;5094616;28;20024;-63
2023/07/24 09:15:07;;;;;;;2.97;1.67;;;;;;;;;;5107942;28;20527;-63
2023/07/24 09:17:32;;;;;;;3.72;1.83;;;;;;;;;;5093926;28;20020;-63
2023/07/24 09:19:57;;;;;;;3.03;1.60;;;;;;;;;;5094058;28;20392;-63
2023/07/24 09:22:23;;;;;;;3.08;1.88;;;;;;;;;;5095777;28;20285;-63
2023/07/24 09:24:49;;;;;;;3.00;1.52;;;;;;;;;;5109084;28;20591;-63
2023/07/24 09:27:14;;;;;;;2.92;1.50;;;;;;;;;;5095071;28;20039;-63
2023/07/24 09:29:39;;;;;;;2.33;1.50;;;;;;;;;;5095890;28;20103;-63
2023/07/24 09:32:05;;;;;;;2.73;1.63;;;;;;;;;;5100230;28;20370;-63
2023/07/24 09:34:31;;;;;;;2.30;1.50;;;;;;;;;;5101179;28;20277;-63
2023/07/24 09:36:56;;;;;;;3.58;1.65;;;;;;;;;;5102852;28;20024;-63
2023/07/24 09:39:25;;;;;;;2.72;1.48;;;;;;;;;;5109621;28;20078;-63
2023/07/24 09:41:50;;;;;;;3.08;1.45;;;;;;;;;;5093956;28;20028;-63
2023/07/24 09:44:15;;;;;;;4.07;1.70;;;;;;;;;;5098135;28;20038;-62
2023/07/24 09:46:43;;;;;;;2.77;1.50;;;;;;;;;;5096577;28;20039;-62
2023/07/24 09:49:08;;;;;;;3.70;1.95;;;;;;;;;;5097876;28;20266;-63
2023/07/24 09:51:34;;;;;;;2.50;1.40;;;;;;;;;;5095860;28;20031;-63
2023/07/24 09:54:17;;;;;;;2.53;1.52;;;;;;;;;;5097804;28;20537;-63
2023/07/24 09:56:42;;;;;;;3.00;1.65;;;;;;;;;;5098056;28;20026;-64
2023/07/24 09:59:09;;;;;;;2.50;1.38;;;;;;;;;;5096423;28;20103;-64
2023/07/24 10:01:34;;;;;;;2.55;1.23;;;;;;;;;;5098380;28;20024;-64
2023/07/24 10:04:00;;;;;;;2.50;1.50;;;;;;;;;;5096376;28;20469;-64
2023/07/24 10:06:26;;;;;;;3.47;1.83;;;;;;;;;;5100325;28;20051;-64
2023/07/24 10:08:52;;;;;;;3.03;1.52;;;;;;;;;;5098417;28;20111;-64
2023/07/24 10:11:17;;;;;;;3.60;2.15;;;;;;;;;;5086771;28;20467;-65
2023/07/24 10:13:43;;;;;;;2.50;1.27;;;;;;;;;;5093131;28;20360;-64
2023/07/24 10:16:08;;;;;;;3.13;1.70;;;;;;;;;;5095046;28;20032;-64
2023/07/24 10:18:40;;;;;;;2.75;1.75;;;;;;;;;;5111046;28;20493;-63
2023/07/24 10:21:07;;;;;;;3.80;1.95;;;;;;;;;;5111317;28;20409;-64
2023/07/24 10:23:50;;;;;;;3.20;1.63;;;;;;;;;;5093115;28;20034;-65
2023/07/24 10:26:15;;;;;;;4.80;2.17;;;;;;;;;;5100199;28;20034;-65
2023/07/24 10:28:41;;;;;;;2.70;1.60;;;;;;;;;;5097273;28;20098;-64
2023/07/24 10:31:10;;;;;;;3.38;2.10;;;;;;;;;;5109380;28;20028;-65
2023/07/24 10:33:38;;;;;;;2.38;1.25;;;;;;;;;;5110280;28;20024;-64
2023/07/24 10:36:05;;;;;;;1.10;0.60;;;;;;;;;;5106947;28;20024;-65
2023/07/24 10:38:34;;;;;;;1.33;0.50;;;;;;;;;;5109321;28;20019;-64
2023/07/24 10:41:03;;;;;;;1.13;0.52;;;;;;;;;;5095523;28;20062;-65
2023/07/24 10:43:28;;;;;;;1.60;0.60;;;;;;;;;;5112619;28;20028;-65
2023/07/24 10:45:55;;;;;;;1.63;0.70;;;;;;;;;;5104905;28;20081;-65
2023/07/24 10:48:21;;;;;;;1.75;0.57;;;;;;;;;;5112619;28;20030;-65
2023/07/24 10:50:47;;;;;;;1.52;0.60;;;;;;;;;;5111888;28;20020;-65
2023/07/24 10:53:17;;;;;;;1.30;0.60;;;;;;;;;;5111301;28;20019;-65
2023/07/24 10:55:42;;;;;;;1.13;0.55;;;;;;;;;;5104627;28;20081;-65
2023/07/24 10:58:08;;;;;;;1.05;0.47;;;;;;;;;;5108706;28;20024;-65
2023/07/24 11:00:34;;;;;;;1.13;0.50;;;;;;;;;;5104637;28;20038;-65
2023/07/24 11:02:59;;;;;;;1.17;0.40;;;;;;;;;;5108491;28;20023;-65
2023/07/24 11:05:24;;;;;;;1.23;0.50;;;;;;;;;;5105149;28;20020;-65
2023/07/24 11:07:50;;;;;;;1.15;0.43;;;;;;;;;;5112407;28;20020;-65
2023/07/24 11:10:22;;;;;;;0.70;0.30;;;;;;;;;;5099053;28;20015;-65
2023/07/24 11:12:47;;;;;;;1.08;0.50;;;;;;;;;;5097472;28;20089;-66
2023/07/24 11:15:13;;;;;;;1.40;0.50;;;;;;;;;;5087831;28;20428;-65
2023/07/24 11:17:40;;;;;;;1.52;0.47;;;;;;;;;;5087618;28;20024;-66
2023/07/24 11:20:09;;;;;;;1.33;0.47;;;;;;;;;;5108272;28;20080;-63
2023/07/24 11:22:34;;;;;;;1.08;0.47;;;;;;;;;;5093456;28;20126;-64
2023/07/24 11:25:01;;;;;;;2.00;0.60;;;;;;;;;;5097730;28;20530;-64
2023/07/24 11:27:26;;;;;;;1.42;0.57;;;;;;;;;;5099250;28;20385;-65
2023/07/24 11:29:51;;;;;;;1.27;0.50;;;;;;;;;;5093488;28;20107;-64
2023/07/24 11:32:17;;;;;;;1.57;0.53;;;;;;;;;;5102343;28;20277;-61
2023/07/24 11:34:43;;;;;;;1.17;0.50;;;;;;;;;;5100094;28;20335;-66
2023/07/24 11:37:08;;;;;;;2.58;0.73;;;;;;;;;;5106191;28;20024;-63
2023/07/24 11:39:33;;;;;;;2.03;0.80;;;;;;;;;;5103976;28;20069;-63
2023/07/24 11:41:59;;;;;;;1.38;0.60;;;;;;;;;;5108389;28;20034;-63
2023/07/24 11:44:28;;;;;;;2.08;0.90;;;;;;;;;;5096756;28;20024;-63
2023/07/24 11:47:03;;;;;;;2.78;1.00;;;;;;;;;;5097029;28;20096;-62
2023/07/24 11:49:28;;;;;;;;;;;;;;;;;;5093768;28;20055;-63
2023/07/24 11:51:59;;;;;;;2.00;0.95;;;;;;;;;;5106025;28;19943;-65
2023/07/24 11:54:24;;;;;;;2.10;1.17;;;;;;;;;;5103442;28;20543;-65
2023/07/24 11:56:49;;;;;;;3.33;1.23;;;;;;;;;;5094155;28;20016;-65
2023/07/24 11:59:15;;;;;;;1.55;0.60;;;;;;;;;;5093307;28;20266;-65
2023/07/24 12:01:40;;;;;;;1.90;0.88;;;;;;;;;;5094579;28;20027;-64
2023/07/24 12:04:06;;;;;;;2.10;0.90;;;;;;;;;;5092401;28;20462;-64
2023/07/24 12:06:31;;;;;;;2.08;1.00;;;;;;;;;;5094013;28;20130;-64
2023/07/24 12:09:04;;;;;;;2.05;0.88;;;;;;;;;;5091843;28;20463;-64
2023/07/24 12:11:31;;;;;;;2.17;1.08;;;;;;;;;;5102521;28;20100;-64
2023/07/24 12:13:56;;;;;;;1.75;0.90;;;;;;;;;;5110759;28;20028;-65
2023/07/24 12:16:21;;;;;;;1.90;0.90;;;;;;;;;;5105235;28;20016;-64
2023/07/24 12:18:46;;;;;;;2.28;0.80;;;;;;;;;;5091751;28;20016;-65
2023/07/24 12:21:12;;;;;;;2.27;0.90;;;;;;;;;;5092114;28;20474;-65
2023/07/24 12:23:37;;;;;;;1.67;0.77;;;;;;;;;;5098800;28;20530;-64
2023/07/24 12:26:02;;;;;;;2.07;0.77;;;;;;;;;;5096061;28;20293;-65
2023/07/24 12:28:27;;;;;;;1.20;0.50;;;;;;;;;;5105667;28;20023;-65
2023/07/24 12:30:53;;;;;;;1.50;0.52;;;;;;;;;;5109636;28;20022;-65
2023/07/24 12:33:18;;;;;;;1.48;0.60;;;;;;;;;;5093378;28;20027;-66
2023/07/24 12:35:43;;;;;;;2.65;0.80;;;;;;;;;;5092861;28;20494;-65
2023/07/24 12:38:09;;;;;;;3.47;0.97;;;;;;;;;;5092753;28;20024;-65
2023/07/24 12:40:34;;;;;;;1.93;0.90;;;;;;;;;;5094624;28;20368;-66
2023/07/24 12:42:59;;;;;;;1.70;0.60;;;;;;;;;;5093822;28;20266;-63
2023/07/24 12:45:24;;;;;;;1.50;0.67;;;;;;;;;;5107849;28;20273;-63
2023/07/24 12:47:50;;;;;;;1.50;0.60;;;;;;;;;;5092643;28;20468;-63
2023/07/24 12:50:15;;;;;;;1.40;0.60;;;;;;;;;;5094779;28;20440;-65
2023/07/24 12:52:40;;;;;;;1.60;0.70;;;;;;;;;;5100990;28;20068;-65
2023/07/24 12:55:06;;;;;;;1.63;0.65;;;;;;;;;;5099632;28;20019;-67
2023/07/24 12:57:31;;;;;;;2.10;0.65;;;;;;;;;;5094241;28;20093;-65
2023/07/24 12:59:57;;;;;;;1.90;0.80;;;;;;;;;;5107444;28;20102;-64
2023/07/24 13:02:22;;;;;;;1.27;0.50;;;;;;;;;;5103750;28;20054;-65
2023/07/24 13:04:47;;;;;;;1.77;0.70;;;;;;;;;;5103326;28;20023;-65
2023/07/24 13:07:13;;;;;;;2.05;0.90;;;;;;;;;;5096933;28;20047;-64
2023/07/24 13:09:38;;;;;;;1.50;0.70;;;;;;;;;;5097250;28;20040;-65
2023/07/24 13:12:03;;;;;;;2.40;1.10;;;;;;;;;;5103818;28;20020;-64
2023/07/24 13:14:29;;;;;;;1.35;0.73;;;;;;;;;;5114241;28;20041;-64
2023/07/24 13:16:54;;;;;;;3.72;0.93;;;;;;;;;;5113558;28;20023;-64
2023/07/24 13:19:20;;;;;;;1.80;0.73;;;;;;;;;;5105361;28;20352;-63
2023/07/24 13:21:46;;;;;;;1.50;0.60;;;;;;;;;;5103099;28;20497;-63
2023/07/24 13:24:12;;;;;;;3.80;0.70;;;;;;;;;;5107190;28;20039;-64
2023/07/24 13:26:37;;;;;;;2.13;1.00;;;;;;;;;;5100156;28;20032;-64
2023/07/24 13:29:03;;;;;;;1.60;0.77;;;;;;;;;;5113823;28;20477;-63
2023/07/24 13:31:28;;;;;;;2.65;0.82;;;;;;;;;;5093858;28;20032;-63
2023/07/24 13:33:54;;;;;;;3.47;1.15;;;;;;;;;;5093968;28;20131;-64
2023/07/24 13:36:19;;;;;;;2.33;1.17;;;;;;;;;;5093635;28;20482;-65
2023/07/24 13:38:44;;;;;;;2.17;1.37;;;;;;;;;;5094390;28;20024;-64
2023/07/24 13:41:09;;;;;;;2.20;1.27;;;;;;;;;;5110539;28;20257;-64
2023/07/24 13:43:35;;;;;;;2.67;1.30;;;;;;;;;;5112810;28;20269;-63
2023/07/24 13:46:02;;;;;;;3.05;1.40;;;;;;;;;;5107025;28;20344;-63
2023/07/24 13:48:28;;;;;;;2.60;1.30;;;;;;;;;;5105662;28;20354;-63
2023/07/24 13:50:53;;;;;;;2.83;1.50;;;;;;;;;;5107083;28;20095;-64
2023/07/24 13:53:19;;;;;;;3.08;1.60;;;;;;;;;;5099971;28;20084;-64
2023/07/24 13:55:44;;;;;;;2.40;1.45;;;;;;;;;;5095568;28;20031;-65
2023/07/24 13:58:09;;;;;;;2.67;1.30;;;;;;;;;;5100733;28;20048;-65
2023/07/24 14:00:34;;;;;;;1.95;0.98;;;;;;;;;;5108717;28;20282;-66
2023/07/24 14:03:00;;;;;;;3.10;1.52;;;;;;;;;;5108575;28;20030;-64
2023/07/24 14:05:25;;;;;;;3.10;1.20;;;;;;;;;;5103128;28;20035;-63
2023/07/24 14:07:50;;;;;;;2.77;1.57;;;;;;;;;;5102925;28;20292;-65
2023/07/24 14:10:15;;;;;;;2.80;1.40;;;;;;;;;;5108225;28;20780;-63
2023/07/24 14:12:41;;;;;;;2.03;0.97;;;;;;;;;;5105588;28;20663;-63
2023/07/24 14:15:06;;;;;;;2.90;1.25;;;;;;;;;;5093170;28;20274;-66
2023/07/24 14:17:32;;;;;;;2.60;1.20;;;;;;;;;;5099607;28;20015;-66
2023/07/24 14:19:57;;;;;;;3.08;1.35;;;;;;;;;;5112483;28;20030;-65
2023/07/24 14:22:22;;;;;;;2.63;1.35;;;;;;;;;;5096012;28;20147;-66
2023/07/24 14:24:48;;;;;;;2.33;1.10;;;;;;;;;;5104608;28;20023;-66
2023/07/24 14:27:16;;;;;;;2.95;1.40;;;;;;;;;;5107400;28;20295;-63
2023/07/24 14:29:41;;;;;;;2.95;1.00;;;;;;;;;;5102885;28;20028;-62